createdAt,value
2018-02-07T00:01:25.434Z,1.10
2018-02-07T00:04:17.041Z,1.20
2018-02-07T00:06:45.328Z,1.20
2018-02-07T00:09:13.627Z,1.20
2018-02-07T00:11:42.181Z,1.30
2018-02-07T00:14:13.732Z,1.30
2018-02-07T00:16:44.971Z,1.20
2018-02-07T00:19:15.480Z,1.30
2018-02-07T00:21:45.969Z,1.20
2018-02-07T00:24:16.932Z,1.30
2018-02-07T00:26:45.761Z,1.20
2018-02-07T00:29:14.040Z,1.20
2018-02-07T00:31:43.933Z,1.30
2018-02-07T00:34:29.611Z,1.30
2018-02-07T00:37:03.253Z,1.30
2018-02-07T00:39:31.543Z,1.30
2018-02-07T00:42:00.741Z,1.30
2018-02-07T00:44:30.670Z,1.40
2018-02-07T00:47:02.060Z,1.30
2018-02-07T00:49:34.900Z,1.30
2018-02-07T00:52:05.304Z,1.30
2018-02-07T00:54:35.937Z,1.30
2018-02-07T00:57:05.403Z,1.40
2018-02-07T00:59:33.675Z,1.40
2018-02-07T01:02:02.005Z,1.40
2018-02-07T01:04:52.850Z,1.40
2018-02-07T01:07:21.202Z,1.40
2018-02-07T01:09:50.520Z,1.40
2018-02-07T01:12:20.024Z,1.30
2018-02-07T01:14:48.302Z,1.30
2018-02-07T01:17:18.769Z,1.40
2018-02-07T01:19:50.171Z,1.40
2018-02-07T01:22:19.518Z,1.30
2018-02-07T01:24:49.198Z,1.30
2018-02-07T01:27:17.493Z,1.30
2018-02-07T01:29:46.725Z,1.30
2018-02-07T01:32:15.371Z,1.30
2018-02-07T01:35:00.821Z,1.30
2018-02-07T01:37:32.634Z,1.40
2018-02-07T01:40:01.592Z,1.40
2018-02-07T01:42:33.739Z,1.30
2018-02-07T01:45:03.280Z,1.20
2018-02-07T01:47:38.546Z,1.20
2018-02-07T01:50:41.932Z,1.30
2018-02-07T01:53:10.739Z,1.30
2018-02-07T01:55:39.070Z,1.30
2018-02-07T01:58:07.583Z,1.30
2018-02-07T02:00:40.597Z,1.20
2018-02-07T02:03:12.088Z,1.30
2018-02-07T02:05:43.493Z,1.30
2018-02-07T02:08:12.083Z,1.30
2018-02-07T02:10:40.384Z,1.20
2018-02-07T02:13:12.015Z,1.20
2018-02-07T02:15:40.568Z,1.20
2018-02-07T02:18:08.883Z,1.30
2018-02-07T02:20:47.282Z,1.30
2018-02-07T02:23:16.683Z,1.30
2018-02-07T02:25:46.405Z,1.20
2018-02-07T02:28:15.224Z,1.20
2018-02-07T02:30:44.168Z,1.30
2018-02-07T02:33:14.375Z,1.20
2018-02-07T02:36:09.986Z,1.30
2018-02-07T02:38:38.548Z,1.30
2018-02-07T02:41:06.824Z,1.30
2018-02-07T02:43:35.708Z,1.30
2018-02-07T02:46:09.494Z,1.20
2018-02-07T02:48:41.412Z,1.20
2018-02-07T02:51:10.306Z,1.30
2018-02-07T02:53:38.629Z,1.30
2018-02-07T02:56:11.001Z,1.40
2018-02-07T02:58:39.967Z,1.40
2018-02-07T03:01:10.627Z,1.40
2018-02-07T03:03:39.299Z,1.40
2018-02-07T03:06:08.147Z,1.40
2018-02-07T03:08:40.633Z,1.40
2018-02-07T03:11:09.253Z,1.40
2018-02-07T03:13:37.570Z,1.40
2018-02-07T03:16:08.556Z,1.30
2018-02-07T03:18:37.279Z,1.30
2018-02-07T03:21:05.573Z,1.40
2018-02-07T03:23:34.287Z,1.40
2018-02-07T03:39:01.011Z,1.40
2018-02-07T03:41:32.448Z,1.20
2018-02-07T03:44:01.900Z,1.30
2018-02-07T03:46:30.198Z,1.30
2018-02-07T03:48:58.473Z,1.30
2018-02-07T03:51:27.312Z,1.30
2018-02-07T03:53:59.011Z,1.30
2018-02-07T03:56:28.917Z,1.30
2018-02-07T03:58:57.551Z,1.20
2018-02-07T04:01:26.495Z,1.20
2018-02-07T04:03:55.398Z,1.20
2018-02-07T04:06:27.303Z,1.20
2018-02-07T04:08:55.903Z,1.20
2018-02-07T04:11:25.890Z,1.20
2018-02-07T04:13:54.181Z,1.20
2018-02-07T04:16:26.821Z,1.10
2018-02-07T04:18:59.161Z,1.10
2018-02-07T04:21:29.312Z,1.00
2018-02-07T04:24:49.578Z,1.00
2018-02-07T04:27:18.883Z,1.00
2018-02-07T04:29:54.615Z,0.90
2018-02-07T04:32:27.670Z,1.00
2018-02-07T04:35:00.945Z,1.10
2018-02-07T04:37:43.805Z,1.10
2018-02-07T04:40:18.274Z,1.20
2018-02-07T04:42:46.989Z,1.10
2018-02-07T04:45:15.442Z,1.10
2018-02-07T04:47:43.693Z,1.10
2018-02-07T04:50:13.748Z,1.10
2018-02-07T04:52:49.722Z,1.10
2018-02-07T04:55:18.150Z,1.10
2018-02-07T04:57:48.007Z,1.10
2018-02-07T05:00:16.291Z,1.10
2018-02-07T05:02:44.612Z,1.00
2018-02-07T05:05:13.987Z,1.00
2018-02-07T05:07:44.223Z,1.00
2018-02-07T05:10:12.864Z,1.00
2018-02-07T05:12:42.228Z,1.00
2018-02-07T05:15:10.564Z,1.00
2018-02-07T05:17:44.372Z,0.90
2018-02-07T05:20:18.725Z,0.90
2018-02-07T05:22:51.267Z,0.90
2018-02-07T05:25:22.823Z,0.90
2018-02-07T05:27:54.784Z,0.80
2018-02-07T05:30:23.837Z,0.80
2018-02-07T05:32:52.150Z,0.80
2018-02-07T05:35:21.162Z,0.90
2018-02-07T05:37:54.954Z,0.90
2018-02-07T05:40:27.066Z,0.90
2018-02-07T05:42:55.726Z,0.80
2018-02-07T05:45:25.130Z,0.80
2018-02-07T05:47:53.405Z,0.70
2018-02-07T05:50:22.592Z,0.70
2018-02-07T05:52:51.496Z,0.60
2018-02-07T05:55:20.747Z,0.50
2018-02-07T05:57:49.965Z,0.50
2018-02-07T06:00:18.672Z,0.50
2018-02-07T06:02:46.964Z,0.50
2018-02-07T06:05:18.096Z,0.50
2018-02-07T06:07:49.693Z,0.50
2018-02-07T06:10:18.756Z,0.60
2018-02-07T06:12:47.060Z,0.60
2018-02-07T06:15:18.326Z,0.60
2018-02-07T06:17:47.003Z,0.60
2018-02-07T06:20:16.576Z,0.50
2018-02-07T06:22:45.783Z,0.60
2018-02-07T06:25:16.112Z,0.50
2018-02-07T06:27:45.873Z,0.60
2018-02-07T06:30:15.198Z,0.60
2018-02-07T06:32:44.810Z,0.60
2018-02-07T06:35:20.207Z,0.70
2018-02-07T06:37:48.516Z,0.60
2018-02-07T06:40:16.949Z,0.60
2018-02-07T06:42:46.375Z,0.50
2018-02-07T06:45:14.858Z,0.50
2018-02-07T06:47:44.049Z,0.50
2018-02-07T06:50:15.226Z,0.50
2018-02-07T06:52:46.071Z,0.40
2018-02-07T06:55:19.000Z,0.40
2018-02-07T06:57:49.477Z,0.40
2018-02-07T07:00:19.806Z,0.30
2018-02-07T07:02:48.145Z,0.20
2018-02-07T07:05:16.430Z,0.20
2018-02-07T07:07:44.826Z,0.10
2018-02-07T07:10:14.992Z,-0.10
2018-02-07T07:12:46.679Z,0.00
2018-02-07T07:15:14.979Z,0.00
2018-02-07T07:17:43.265Z,-0.10
2018-02-07T07:20:12.308Z,-0.20
2018-02-07T07:22:41.016Z,-0.30
2018-02-07T07:25:09.578Z,-0.50
2018-02-07T07:27:38.343Z,-0.50
2018-02-07T07:30:07.972Z,-0.50
2018-02-07T07:32:39.719Z,-0.50
2018-02-07T07:35:12.775Z,-0.50
2018-02-07T07:37:41.067Z,-0.50
2018-02-07T07:40:32.318Z,-0.70
2018-02-07T07:43:00.623Z,-0.90
2018-02-07T07:45:28.910Z,-1.00
2018-02-07T07:47:57.566Z,-1.20
2018-02-07T07:50:27.121Z,-1.10
2018-02-07T07:52:55.391Z,-1.10
2018-02-07T07:55:24.388Z,-1.00
2018-02-07T07:57:53.220Z,-0.90
2018-02-07T08:00:22.043Z,-0.70
2018-02-07T08:02:52.261Z,-0.70
2018-02-07T08:05:20.977Z,-0.70
2018-02-07T08:07:50.289Z,-0.70
2018-02-07T08:10:30.034Z,-0.50
2018-02-07T08:12:59.089Z,-0.10
2018-02-07T08:15:28.131Z,0.00
2018-02-07T08:17:58.459Z,-0.10
2018-02-07T08:20:27.794Z,0.00
2018-02-07T08:22:57.695Z,0.00
2018-02-07T08:25:49.611Z,0.20
2018-02-07T08:28:19.828Z,0.20
2018-02-07T08:30:55.041Z,0.20
2018-02-07T08:33:24.792Z,0.30
2018-02-07T08:35:53.468Z,0.40
2018-02-07T08:38:23.064Z,0.50
2018-02-07T08:40:52.855Z,0.80
2018-02-07T08:43:21.188Z,1.20
2018-02-07T08:45:49.473Z,1.60
2018-02-07T08:48:17.841Z,2.10
2018-02-07T08:50:47.003Z,2.60
2018-02-07T08:53:15.976Z,2.80
2018-02-07T08:55:45.368Z,2.40
2018-02-07T08:58:14.932Z,2.40
2018-02-07T09:00:44.257Z,2.30
2018-02-07T09:03:13.262Z,2.60
2018-02-07T09:05:45.221Z,2.80
2018-02-07T09:08:14.366Z,3.00
2018-02-07T09:10:43.055Z,3.40
2018-02-07T09:13:13.029Z,3.20
2018-02-07T09:15:44.482Z,3.10
2018-02-07T09:18:17.976Z,2.80
2018-02-07T09:20:48.587Z,2.70
2018-02-07T09:23:17.205Z,2.70
2018-02-07T09:25:46.294Z,2.50
2018-02-07T09:28:14.694Z,2.50
2018-02-07T09:30:44.975Z,2.80
2018-02-07T09:33:13.627Z,3.10
2018-02-07T09:35:42.528Z,2.70
2018-02-07T09:38:10.828Z,2.40
2018-02-07T09:40:40.312Z,2.10
2018-02-07T09:43:08.766Z,2.00
2018-02-07T09:45:37.407Z,1.90
2018-02-07T09:48:05.682Z,1.90
2018-02-07T09:50:34.044Z,1.90
2018-02-07T09:53:03.434Z,1.90
2018-02-07T09:55:34.697Z,1.90
2018-02-07T09:58:06.902Z,2.00
2018-02-07T10:00:44.359Z,2.40
2018-02-07T10:03:15.100Z,2.40
2018-02-07T10:05:45.520Z,2.70
2018-02-07T10:08:14.168Z,3.00
2018-02-07T10:10:42.424Z,3.10
2018-02-07T10:13:10.946Z,2.90
2018-02-07T10:15:41.458Z,2.80
2018-02-07T10:18:12.405Z,2.90
2018-02-07T10:20:44.191Z,2.90
2018-02-07T10:23:13.332Z,2.90
2018-02-07T10:25:41.609Z,2.80
2018-02-07T10:28:09.897Z,2.90
2018-02-07T10:30:38.873Z,3.00
2018-02-07T10:33:09.580Z,3.10
2018-02-07T10:35:39.404Z,3.20
2018-02-07T10:38:09.332Z,3.40
2018-02-07T10:40:37.791Z,3.30
2018-02-07T10:43:06.755Z,3.20
2018-02-07T10:45:36.034Z,3.20
2018-02-07T10:48:04.294Z,3.10
2018-02-07T10:50:34.378Z,3.10
2018-02-07T10:53:09.288Z,3.00
2018-02-07T10:55:41.110Z,2.80
2018-02-07T10:58:11.290Z,2.80
2018-02-07T11:00:40.351Z,2.70
2018-02-07T11:03:09.961Z,2.70
2018-02-07T11:05:38.630Z,2.70
2018-02-07T11:08:07.298Z,2.70
2018-02-07T11:10:36.156Z,2.80
2018-02-07T11:13:10.281Z,2.70
2018-02-07T11:15:41.999Z,2.70
2018-02-07T11:18:10.706Z,2.70
2018-02-07T11:20:40.729Z,2.80
2018-02-07T11:23:09.159Z,2.90
2018-02-07T11:25:37.676Z,3.00
2018-02-07T11:28:16.836Z,3.10
2018-02-07T11:30:45.616Z,3.10
2018-02-07T11:33:16.410Z,3.10
2018-02-07T11:35:47.151Z,3.20
2018-02-07T11:38:15.433Z,3.30
2018-02-07T11:40:44.486Z,3.50
2018-02-07T11:43:27.123Z,3.50
2018-02-07T11:46:02.227Z,3.50
2018-02-07T11:48:35.490Z,3.60
2018-02-07T11:51:07.004Z,3.60
2018-02-07T11:53:37.677Z,3.70
2018-02-07T11:56:08.895Z,3.70
2018-02-07T11:58:41.660Z,3.70
2018-02-07T12:01:09.952Z,3.80
2018-02-07T12:03:39.447Z,3.80
2018-02-07T12:06:07.750Z,3.90
2018-02-07T12:08:38.262Z,4.00
2018-02-07T12:11:06.583Z,4.00
2018-02-07T12:13:35.107Z,4.10
2018-02-07T12:16:27.565Z,4.10
2018-02-07T12:18:56.995Z,4.50
2018-02-07T12:21:26.093Z,4.50
2018-02-07T12:23:56.596Z,4.50
2018-02-07T12:26:25.691Z,4.70
2018-02-07T12:28:54.080Z,4.70
2018-02-07T12:31:22.373Z,4.80
2018-02-07T12:33:50.874Z,4.80
2018-02-07T12:36:19.171Z,4.90
2018-02-07T12:38:49.667Z,4.90
2018-02-07T12:41:23.680Z,4.80
2018-02-07T12:43:52.553Z,4.70
2018-02-07T12:46:42.624Z,4.70
2018-02-07T12:49:11.476Z,4.70
2018-02-07T12:51:42.637Z,4.70
2018-02-07T12:54:13.974Z,4.70
2018-02-07T12:56:43.622Z,4.70
2018-02-07T12:59:12.233Z,4.90
2018-02-07T13:01:40.521Z,4.80
2018-02-07T13:04:08.810Z,4.80
2018-02-07T13:06:40.097Z,4.80
2018-02-07T13:09:09.552Z,4.70
2018-02-07T13:11:41.533Z,4.80
2018-02-07T13:14:14.538Z,4.80
2018-02-07T13:16:50.042Z,4.80
2018-02-07T13:19:22.276Z,4.90
2018-02-07T13:21:52.442Z,4.90
2018-02-07T13:24:20.915Z,4.90
2018-02-07T13:26:49.712Z,4.90
2018-02-07T13:29:19.600Z,4.80
2018-02-07T13:31:49.508Z,4.80
2018-02-07T13:34:18.428Z,4.80
2018-02-07T13:36:49.223Z,4.90
2018-02-07T13:39:24.400Z,5.00
2018-02-07T13:41:59.076Z,4.90
2018-02-07T13:44:27.335Z,4.90
2018-02-07T13:46:56.144Z,4.90
2018-02-07T13:49:24.444Z,4.90
2018-02-07T13:51:53.370Z,5.00
2018-02-07T13:54:24.135Z,4.90
2018-02-07T13:56:54.148Z,5.00
2018-02-07T13:59:23.484Z,4.90
2018-02-07T14:01:52.140Z,4.80
2018-02-07T14:04:21.130Z,4.80
2018-02-07T14:06:50.289Z,4.90
2018-02-07T14:09:18.576Z,5.00
2018-02-07T14:11:46.874Z,4.80
2018-02-07T14:14:16.561Z,5.00
2018-02-07T14:16:46.084Z,4.90
2018-02-07T14:19:17.035Z,4.90
2018-02-07T14:21:46.916Z,5.00
2018-02-07T14:24:15.653Z,5.00
2018-02-07T14:26:43.921Z,5.00
2018-02-07T14:29:16.045Z,5.10
2018-02-07T14:31:46.208Z,5.10
2018-02-07T14:34:15.320Z,5.10
2018-02-07T14:36:43.829Z,5.10
2018-02-07T14:39:12.164Z,5.10
2018-02-07T14:41:42.027Z,5.10
2018-02-07T14:44:11.038Z,5.00
2018-02-07T14:46:43.776Z,5.10
2018-02-07T14:49:13.553Z,5.10
2018-02-07T14:51:42.611Z,5.10
2018-02-07T14:54:11.567Z,5.00
2018-02-07T14:56:39.870Z,5.10
2018-02-07T14:59:16.211Z,5.10
2018-02-07T15:01:44.952Z,5.10
2018-02-07T15:04:18.619Z,5.00
2018-02-07T15:06:47.604Z,5.00
2018-02-07T15:09:15.876Z,4.90
2018-02-07T15:11:47.408Z,5.10
2018-02-07T15:14:16.711Z,5.10
2018-02-07T15:16:46.237Z,5.10
2018-02-07T15:19:15.115Z,5.20
2018-02-07T15:21:43.396Z,5.20
2018-02-07T15:24:13.086Z,5.20
2018-02-07T15:26:42.030Z,5.10
2018-02-07T15:29:12.446Z,5.10
2018-02-07T15:31:48.821Z,5.10
2018-02-07T15:34:17.371Z,5.10
2018-02-07T15:36:47.219Z,5.00
2018-02-07T15:39:15.895Z,4.90
2018-02-07T15:41:44.557Z,4.90
2018-02-07T15:44:16.522Z,4.80
2018-02-07T15:46:50.586Z,4.70
2018-02-07T15:49:19.106Z,4.70
2018-02-07T15:51:47.387Z,4.50
2018-02-07T15:54:16.789Z,4.50
2018-02-07T15:56:45.388Z,4.40
2018-02-07T15:59:14.165Z,4.40
2018-02-07T16:01:42.494Z,4.40
2018-02-07T16:04:11.662Z,4.40
2018-02-07T16:06:40.357Z,4.20
2018-02-07T16:09:09.085Z,4.30
2018-02-07T16:11:37.367Z,4.30
2018-02-07T16:14:07.663Z,4.30
2018-02-07T16:16:38.858Z,4.30
2018-02-07T16:19:29.658Z,4.20
2018-02-07T16:21:58.206Z,4.10
2018-02-07T16:24:26.734Z,4.10
2018-02-07T16:26:55.045Z,4.00
2018-02-07T16:29:26.008Z,3.90
2018-02-07T16:31:54.271Z,3.80
2018-02-07T16:34:24.457Z,3.80
2018-02-07T16:36:57.493Z,3.70
2018-02-07T16:39:26.536Z,3.60
2018-02-07T16:41:54.837Z,3.60
2018-02-07T16:44:25.804Z,3.40
2018-02-07T16:46:55.819Z,3.30
2018-02-07T16:49:24.123Z,3.20
2018-02-07T16:51:52.456Z,3.10
2018-02-07T16:54:20.742Z,3.10
2018-02-07T16:56:49.832Z,3.00
2018-02-07T16:59:21.202Z,3.00
2018-02-07T17:01:49.490Z,3.00
2018-02-07T17:04:40.428Z,2.90
2018-02-07T17:07:10.686Z,2.90
2018-02-07T17:09:39.822Z,2.90
2018-02-07T17:12:10.018Z,2.90
2018-02-07T17:14:39.009Z,2.80
2018-02-07T17:17:08.401Z,2.80
2018-02-07T17:22:59.487Z,2.80
2018-02-07T17:25:27.768Z,2.80
2018-02-07T17:27:57.349Z,2.60
2018-02-07T17:30:26.475Z,2.60
2018-02-07T17:32:54.780Z,2.60
2018-02-07T17:35:23.854Z,2.60
2018-02-07T17:37:52.920Z,2.40
2018-02-07T17:40:21.190Z,2.40
2018-02-07T17:42:55.628Z,2.30
2018-02-07T17:45:23.928Z,2.30
2018-02-07T17:47:54.895Z,2.20
2018-02-07T17:53:46.601Z,2.10
2018-02-07T17:56:15.350Z,2.00
2018-02-07T17:58:48.492Z,1.90
2018-02-07T18:01:19.496Z,1.70
2018-02-07T18:04:00.322Z,1.50
2018-02-07T18:06:28.631Z,1.50
2018-02-07T18:09:01.884Z,1.30
2018-02-07T18:11:38.697Z,1.20
2018-02-07T18:14:12.239Z,1.30
2018-02-07T18:16:42.423Z,1.30
2018-02-07T18:19:19.634Z,1.30
2018-02-07T18:21:50.184Z,1.30
2018-02-07T18:24:18.549Z,1.30
2018-02-07T18:26:46.860Z,1.20
2018-02-07T18:29:15.922Z,1.20
2018-02-07T18:31:44.223Z,1.00
2018-02-07T18:34:28.552Z,0.70
2018-02-07T18:36:57.487Z,0.70
2018-02-07T18:39:28.393Z,0.70
2018-02-07T18:41:58.984Z,0.60
2018-02-07T18:44:27.816Z,0.60
2018-02-07T18:46:56.486Z,0.40
2018-02-07T18:49:25.007Z,0.30
2018-02-07T18:51:53.279Z,0.20
2018-02-07T18:54:25.114Z,0.20
2018-02-07T18:56:57.586Z,0.20
2018-02-07T18:59:31.258Z,0.30
2018-02-07T19:02:00.378Z,0.20
2018-02-07T19:04:29.632Z,0.20
2018-02-07T19:06:59.558Z,0.10
2018-02-07T19:09:28.650Z,0.10
2018-02-07T19:11:58.649Z,0.00
2018-02-07T19:14:28.188Z,0.00
2018-02-07T19:16:57.180Z,0.00
2018-02-07T19:19:26.329Z,-0.10
2018-02-07T19:21:54.646Z,-0.20
2018-02-07T19:24:23.855Z,-0.30
2018-02-07T19:26:52.143Z,-0.30
2018-02-07T19:29:27.260Z,-0.40
2018-02-07T19:32:01.904Z,-0.50
2018-02-07T19:34:38.387Z,-0.60
2018-02-07T19:37:11.653Z,-0.80
2018-02-07T19:39:40.092Z,-0.80
2018-02-07T19:42:08.902Z,-0.90
2018-02-07T19:44:38.010Z,-0.90
2018-02-07T19:47:09.235Z,-1.00
2018-02-07T19:49:37.951Z,-1.10
2018-02-07T19:52:12.938Z,-1.10
2018-02-07T19:54:48.658Z,-1.20
2018-02-07T19:57:19.670Z,-1.20
2018-02-07T19:59:50.336Z,-1.20
2018-02-07T20:02:22.156Z,-1.30
2018-02-07T20:04:51.798Z,-1.30
2018-02-07T20:07:21.615Z,-1.30
2018-02-07T20:09:50.329Z,-1.40
2018-02-07T20:12:18.630Z,-1.40
2018-02-07T20:14:49.084Z,-1.40
2018-02-07T20:17:19.788Z,-1.40
2018-02-07T20:19:49.113Z,-1.50
2018-02-07T20:22:17.418Z,-1.50
2018-02-07T20:24:46.572Z,-1.50
2018-02-07T20:27:15.053Z,-1.50
2018-02-07T20:29:44.054Z,-1.50
2018-02-07T20:32:14.774Z,-1.50
2018-02-07T20:34:45.414Z,-1.50
2018-02-07T20:37:16.041Z,-1.50
2018-02-07T20:39:44.962Z,-1.40
2018-02-07T20:42:14.131Z,-1.40
2018-02-07T20:44:46.812Z,-1.40
2018-02-07T20:47:19.158Z,-1.30
2018-02-07T20:49:49.712Z,-1.30
2018-02-07T20:52:18.003Z,-1.30
2018-02-07T20:54:47.702Z,-1.20
2018-02-07T20:57:16.768Z,-1.20
2018-02-07T20:59:47.136Z,-1.20
2018-02-07T21:02:17.293Z,-1.20
2018-02-07T21:04:50.839Z,-1.20
2018-02-07T21:07:21.158Z,-1.10
2018-02-07T21:09:50.259Z,-1.10
2018-02-07T21:12:19.853Z,-1.10
2018-02-07T21:14:48.145Z,-1.10
2018-02-07T21:17:18.074Z,-1.10
2018-02-07T21:19:52.401Z,-1.00
2018-02-07T21:22:42.304Z,-1.00
2018-02-07T21:25:10.657Z,-1.10
2018-02-07T21:27:39.706Z,-1.10
2018-02-07T21:30:09.834Z,-1.10
2018-02-07T21:32:41.693Z,-1.10
2018-02-07T21:35:14.036Z,-1.10
2018-02-07T21:37:57.731Z,-1.20
2018-02-07T21:40:27.223Z,-1.30
2018-02-07T21:42:55.523Z,-1.30
2018-02-07T21:45:25.706Z,-1.40
2018-02-07T21:47:59.674Z,-1.50
2018-02-07T21:50:28.216Z,-1.50
2018-02-07T21:53:32.551Z,-1.50
2018-02-07T21:56:00.895Z,-1.60
2018-02-07T21:58:29.207Z,-1.70
2018-02-07T22:01:01.079Z,-1.80
2018-02-07T22:03:31.463Z,-1.80
2018-02-07T22:06:02.903Z,-1.90
2018-02-07T22:08:31.463Z,-2.00
2018-02-07T22:11:00.597Z,-2.10
2018-02-07T22:13:31.328Z,-2.20
2018-02-07T22:16:01.306Z,-2.30
2018-02-07T22:18:29.606Z,-2.40
2018-02-07T22:21:00.285Z,-2.40
2018-02-07T22:23:28.750Z,-2.40
2018-02-07T22:25:57.697Z,-2.50
2018-02-07T22:28:28.848Z,-2.60
2018-02-07T22:30:58.365Z,-2.70
2018-02-07T22:33:26.743Z,-2.70
2018-02-07T22:35:55.034Z,-2.70
2018-02-07T22:38:23.582Z,-2.80
2018-02-07T22:40:56.816Z,-2.80
2018-02-07T22:43:32.682Z,-2.90
2018-02-07T22:46:09.123Z,-2.90
2018-02-07T22:48:45.757Z,-3.00
2018-02-07T22:51:15.258Z,-3.00
2018-02-07T22:53:44.619Z,-3.00
2018-02-07T22:56:13.691Z,-3.10
2018-02-07T22:58:42.791Z,-3.10
2018-02-07T23:01:15.737Z,-3.10
2018-02-07T23:03:50.743Z,-3.00
2018-02-07T23:06:20.228Z,-3.10
2018-02-07T23:08:48.685Z,-3.10
2018-02-07T23:11:17.425Z,-3.10
2018-02-07T23:13:47.139Z,-3.10
2018-02-07T23:16:16.292Z,-3.20
2018-02-07T23:18:45.684Z,-3.20
2018-02-07T23:21:13.972Z,-3.30
2018-02-07T23:23:43.470Z,-3.40
2018-02-07T23:26:13.863Z,-3.40
2018-02-07T23:28:44.990Z,-3.50
2018-02-07T23:31:13.367Z,-3.50
2018-02-07T23:33:43.214Z,-3.50
2018-02-07T23:36:11.697Z,-3.50
2018-02-07T23:38:41.886Z,-3.60
2018-02-07T23:41:11.819Z,-3.60
2018-02-07T23:43:46.871Z,-3.70
2018-02-07T23:46:24.622Z,-3.70
2018-02-07T23:48:55.625Z,-3.70
2018-02-07T23:51:25.658Z,-3.60
2018-02-07T23:53:54.617Z,-3.70
2018-02-07T23:56:22.933Z,-3.70
2018-02-07T23:58:52.488Z,-3.70
